sensor_id;sensor_type;location;lat;lon;timestamp;P1;durP1;ratioP1;P2;durP2;ratioP2
17796;SDS011;55596;53.554;9.916;2023-08-21T00:02:00;23.47;;;7.60;;
17796;SDS011;55596;53.554;9.916;2023-08-21T00:04:27;20.67;;;8.03;;
17796;SDS011;55596;53.554;9.916;2023-08-21T00:06:55;22.97;;;8.03;;
17796;SDS011;55596;53.554;9.916;2023-08-21T00:09:22;18.30;;;8.20;;
17796;SDS011;55596;53.554;9.916;2023-08-21T00:11:50;27.37;;;8.73;;
17796;SDS011;55596;53.554;9.916;2023-08-21T00:14:18;18.43;;;8.33;;
17796;SDS011;55596;53.554;9.916;2023-08-21T00:16:45;22.97;;;7.80;;
17796;SDS011;55596;53.554;9.916;2023-08-21T00:19:12;20.50;;;8.03;;
17796;SDS011;55596;53.554;9.916;2023-08-21T00:21:39;28.23;;;9.33;;
17796;SDS011;55596;53.554;9.916;2023-08-21T00:24:06;18.87;;;9.50;;
17796;SDS011;55596;53.554;9.916;2023-08-21T00:26:33;19.57;;;9.10;;
17796;SDS011;55596;53.554;9.916;2023-08-21T00:29:02;24.03;;;9.50;;
17796;SDS011;55596;53.554;9.916;2023-08-21T00:31:29;28.50;;;9.60;;
17796;SDS011;55596;53.554;9.916;2023-08-21T00:33:56;21.20;;;9.10;;
17796;SDS011;55596;53.554;9.916;2023-08-21T00:36:23;25.57;;;8.47;;
17796;SDS011;55596;53.554;9.916;2023-08-21T00:38:50;25.60;;;8.87;;
17796;SDS011;55596;53.554;9.916;2023-08-21T00:41:17;27.20;;;9.10;;
17796;SDS011;55596;53.554;9.916;2023-08-21T00:43:44;17.17;;;8.50;;
17796;SDS011;55596;53.554;9.916;2023-08-21T00:46:13;26.03;;;9.23;;
17796;SDS011;55596;53.554;9.916;2023-08-21T00:48:40;24.90;;;9.63;;
17796;SDS011;55596;53.554;9.916;2023-08-21T00:51:08;20.37;;;9.47;;
17796;SDS011;55596;53.554;9.916;2023-08-21T00:53:36;23.07;;;9.50;;
17796;SDS011;55596;53.554;9.916;2023-08-21T00:56:03;23.17;;;8.60;;
17796;SDS011;55596;53.554;9.916;2023-08-21T00:58:30;26.17;;;9.47;;
17796;SDS011;55596;53.554;9.916;2023-08-21T01:00:57;27.27;;;10.30;;
17796;SDS011;55596;53.554;9.916;2023-08-21T01:03:26;22.67;;;9.90;;
17796;SDS011;55596;53.554;9.916;2023-08-21T01:05:54;20.03;;;8.97;;
17796;SDS011;55596;53.554;9.916;2023-08-21T01:08:24;17.57;;;8.60;;
17796;SDS011;55596;53.554;9.916;2023-08-21T01:10:54;23.37;;;8.87;;
17796;SDS011;55596;53.554;9.916;2023-08-21T01:13:29;22.83;;;9.20;;
17796;SDS011;55596;53.554;9.916;2023-08-21T01:15:59;30.13;;;10.17;;
17796;SDS011;55596;53.554;9.916;2023-08-21T01:18:28;27.20;;;9.30;;
17796;SDS011;55596;53.554;9.916;2023-08-21T01:20:55;23.70;;;9.43;;
17796;SDS011;55596;53.554;9.916;2023-08-21T01:23:34;36.63;;;11.90;;
17796;SDS011;55596;53.554;9.916;2023-08-21T01:26:01;25.23;;;10.53;;
17796;SDS011;55596;53.554;9.916;2023-08-21T01:28:28;23.20;;;10.20;;
17796;SDS011;55596;53.554;9.916;2023-08-21T01:30:58;19.03;;;9.43;;
17796;SDS011;55596;53.554;9.916;2023-08-21T01:33:26;22.13;;;9.00;;
17796;SDS011;55596;53.554;9.916;2023-08-21T01:35:53;27.60;;;10.70;;
17796;SDS011;55596;53.554;9.916;2023-08-21T01:38:21;28.93;;;10.70;;
17796;SDS011;55596;53.554;9.916;2023-08-21T01:40:53;25.70;;;10.23;;
17796;SDS011;55596;53.554;9.916;2023-08-21T01:43:20;25.07;;;10.43;;
17796;SDS011;55596;53.554;9.916;2023-08-21T01:45:47;27.47;;;11.50;;
17796;SDS011;55596;53.554;9.916;2023-08-21T01:48:16;22.03;;;10.00;;
17796;SDS011;55596;53.554;9.916;2023-08-21T01:50:43;31.50;;;12.20;;
17796;SDS011;55596;53.554;9.916;2023-08-21T01:53:11;30.53;;;12.07;;
17796;SDS011;55596;53.554;9.916;2023-08-21T01:55:38;36.90;;;12.93;;
17796;SDS011;55596;53.554;9.916;2023-08-21T01:58:07;30.27;;;12.10;;
17796;SDS011;55596;53.554;9.916;2023-08-21T02:00:34;36.43;;;13.03;;
17796;SDS011;55596;53.554;9.916;2023-08-21T02:03:01;31.57;;;12.67;;
17796;SDS011;55596;53.554;9.916;2023-08-21T02:05:36;26.47;;;12.10;;
17796;SDS011;55596;53.554;9.916;2023-08-21T02:08:04;31.47;;;13.63;;
17796;SDS011;55596;53.554;9.916;2023-08-21T02:10:32;33.60;;;13.40;;
17796;SDS011;55596;53.554;9.916;2023-08-21T02:12:59;31.23;;;14.00;;
17796;SDS011;55596;53.554;9.916;2023-08-21T02:15:31;33.37;;;14.47;;
17796;SDS011;55596;53.554;9.916;2023-08-21T02:17:58;31.83;;;13.97;;
17796;SDS011;55596;53.554;9.916;2023-08-21T02:20:25;31.93;;;12.70;;
17796;SDS011;55596;53.554;9.916;2023-08-21T02:22:53;21.30;;;11.47;;
17796;SDS011;55596;53.554;9.916;2023-08-21T02:25:20;30.70;;;13.37;;
17796;SDS011;55596;53.554;9.916;2023-08-21T02:27:47;29.00;;;13.30;;
17796;SDS011;55596;53.554;9.916;2023-08-21T02:30:14;32.13;;;13.63;;
17796;SDS011;55596;53.554;9.916;2023-08-21T02:32:52;29.67;;;13.83;;
17796;SDS011;55596;53.554;9.916;2023-08-21T02:35:22;31.03;;;13.80;;
17796;SDS011;55596;53.554;9.916;2023-08-21T02:37:49;33.80;;;15.10;;
17796;SDS011;55596;53.554;9.916;2023-08-21T02:40:16;31.47;;;13.77;;
17796;SDS011;55596;53.554;9.916;2023-08-21T02:42:44;31.60;;;14.20;;
17796;SDS011;55596;53.554;9.916;2023-08-21T02:45:11;23.33;;;13.10;;
17796;SDS011;55596;53.554;9.916;2023-08-21T02:47:38;27.03;;;13.30;;
17796;SDS011;55596;53.554;9.916;2023-08-21T02:50:08;35.00;;;13.67;;
17796;SDS011;55596;53.554;9.916;2023-08-21T02:52:35;28.00;;;13.43;;
17796;SDS011;55596;53.554;9.916;2023-08-21T02:55:03;27.67;;;13.13;;
17796;SDS011;55596;53.554;9.916;2023-08-21T02:57:30;27.77;;;12.10;;
17796;SDS011;55596;53.554;9.916;2023-08-21T02:59:58;29.63;;;12.07;;
17796;SDS011;55596;53.554;9.916;2023-08-21T03:02:25;26.63;;;10.77;;
17796;SDS011;55596;53.554;9.916;2023-08-21T03:04:53;28.37;;;11.47;;
17796;SDS011;55596;53.554;9.916;2023-08-21T03:07:21;28.67;;;11.40;;
17796;SDS011;55596;53.554;9.916;2023-08-21T03:09:48;30.77;;;11.33;;
17796;SDS011;55596;53.554;9.916;2023-08-21T03:12:16;24.27;;;10.33;;
17796;SDS011;55596;53.554;9.916;2023-08-21T03:14:43;18.03;;;8.63;;
17796;SDS011;55596;53.554;9.916;2023-08-21T03:17:12;18.03;;;8.80;;
17796;SDS011;55596;53.554;9.916;2023-08-21T03:19:39;19.03;;;9.60;;
17796;SDS011;55596;53.554;9.916;2023-08-21T03:22:06;23.60;;;9.67;;
17796;SDS011;55596;53.554;9.916;2023-08-21T03:24:35;20.83;;;8.43;;
17796;SDS011;55596;53.554;9.916;2023-08-21T03:27:03;23.60;;;8.47;;
17796;SDS011;55596;53.554;9.916;2023-08-21T03:29:30;14.57;;;8.43;;
17796;SDS011;55596;53.554;9.916;2023-08-21T03:31:57;18.33;;;8.40;;
17796;SDS011;55596;53.554;9.916;2023-08-21T03:34:24;23.50;;;9.97;;
17796;SDS011;55596;53.554;9.916;2023-08-21T03:36:51;27.10;;;10.87;;
17796;SDS011;55596;53.554;9.916;2023-08-21T03:39:19;24.00;;;11.23;;
17796;SDS011;55596;53.554;9.916;2023-08-21T03:41:47;22.07;;;11.90;;
17796;SDS011;55596;53.554;9.916;2023-08-21T03:44:14;33.00;;;13.37;;
17796;SDS011;55596;53.554;9.916;2023-08-21T03:46:41;22.00;;;12.50;;
17796;SDS011;55596;53.554;9.916;2023-08-21T03:49:08;25.37;;;12.80;;
17796;SDS011;55596;53.554;9.916;2023-08-21T03:51:35;35.27;;;16.67;;
17796;SDS011;55596;53.554;9.916;2023-08-21T03:54:03;28.60;;;15.10;;
17796;SDS011;55596;53.554;9.916;2023-08-21T03:56:32;29.77;;;15.33;;
17796;SDS011;55596;53.554;9.916;2023-08-21T03:59:01;47.97;;;17.33;;
17796;SDS011;55596;53.554;9.916;2023-08-21T04:01:28;33.20;;;14.83;;
17796;SDS011;55596;53.554;9.916;2023-08-21T04:03:56;35.87;;;15.07;;
17796;SDS011;55596;53.554;9.916;2023-08-21T04:06:23;36.20;;;14.30;;
17796;SDS011;55596;53.554;9.916;2023-08-21T04:08:50;30.20;;;14.50;;
17796;SDS011;55596;53.554;9.916;2023-08-21T04:11:17;34.20;;;15.23;;
17796;SDS011;55596;53.554;9.916;2023-08-21T04:13:44;27.97;;;14.13;;
17796;SDS011;55596;53.554;9.916;2023-08-21T04:16:13;30.77;;;16.17;;
17796;SDS011;55596;53.554;9.916;2023-08-21T04:18:42;34.63;;;16.07;;
17796;SDS011;55596;53.554;9.916;2023-08-21T04:21:09;32.93;;;14.77;;
17796;SDS011;55596;53.554;9.916;2023-08-21T04:23:36;30.97;;;14.80;;
17796;SDS011;55596;53.554;9.916;2023-08-21T04:26:04;32.73;;;14.00;;
17796;SDS011;55596;53.554;9.916;2023-08-21T04:28:31;26.50;;;13.50;;
17796;SDS011;55596;53.554;9.916;2023-08-21T04:30:58;28.93;;;12.30;;
17796;SDS011;55596;53.554;9.916;2023-08-21T04:33:27;23.50;;;11.63;;
17796;SDS011;55596;53.554;9.916;2023-08-21T04:35:54;25.53;;;11.80;;
17796;SDS011;55596;53.554;9.916;2023-08-21T04:38:22;23.53;;;11.93;;
17796;SDS011;55596;53.554;9.916;2023-08-21T04:40:49;23.23;;;12.10;;
17796;SDS011;55596;53.554;9.916;2023-08-21T04:43:16;31.17;;;13.27;;
17796;SDS011;55596;53.554;9.916;2023-08-21T04:45:47;29.27;;;13.03;;
17796;SDS011;55596;53.554;9.916;2023-08-21T04:48:15;26.63;;;12.17;;
17796;SDS011;55596;53.554;9.916;2023-08-21T04:50:43;23.17;;;12.27;;
17796;SDS011;55596;53.554;9.916;2023-08-21T04:53:10;31.27;;;13.10;;
17796;SDS011;55596;53.554;9.916;2023-08-21T04:55:38;28.73;;;12.63;;
17796;SDS011;55596;53.554;9.916;2023-08-21T04:58:06;21.50;;;12.27;;
17796;SDS011;55596;53.554;9.916;2023-08-21T05:00:33;25.40;;;12.47;;
17796;SDS011;55596;53.554;9.916;2023-08-21T05:03:00;23.57;;;12.87;;
17796;SDS011;55596;53.554;9.916;2023-08-21T05:05:27;25.30;;;12.10;;
17796;SDS011;55596;53.554;9.916;2023-08-21T05:07:56;30.23;;;12.13;;
17796;SDS011;55596;53.554;9.916;2023-08-21T05:10:23;25.50;;;11.47;;
17796;SDS011;55596;53.554;9.916;2023-08-21T05:12:50;21.90;;;11.80;;
17796;SDS011;55596;53.554;9.916;2023-08-21T05:15:18;26.47;;;12.63;;
17796;SDS011;55596;53.554;9.916;2023-08-21T05:17:45;22.87;;;11.73;;
17796;SDS011;55596;53.554;9.916;2023-08-21T05:20:12;22.50;;;11.77;;
17796;SDS011;55596;53.554;9.916;2023-08-21T05:22:39;24.33;;;11.47;;
17796;SDS011;55596;53.554;9.916;2023-08-21T05:25:10;25.00;;;11.53;;
17796;SDS011;55596;53.554;9.916;2023-08-21T05:27:47;25.90;;;11.73;;
17796;SDS011;55596;53.554;9.916;2023-08-21T05:30:15;21.93;;;11.00;;
17796;SDS011;55596;53.554;9.916;2023-08-21T05:32:42;27.10;;;11.30;;
17796;SDS011;55596;53.554;9.916;2023-08-21T05:35:10;20.87;;;11.33;;
17796;SDS011;55596;53.554;9.916;2023-08-21T05:37:38;23.00;;;11.50;;
17796;SDS011;55596;53.554;9.916;2023-08-21T05:40:05;24.27;;;11.13;;
17796;SDS011;55596;53.554;9.916;2023-08-21T05:42:34;20.93;;;11.23;;
17796;SDS011;55596;53.554;9.916;2023-08-21T05:45:01;25.37;;;11.33;;
17796;SDS011;55596;53.554;9.916;2023-08-21T05:47:29;21.77;;;10.93;;
17796;SDS011;55596;53.554;9.916;2023-08-21T05:49:56;22.40;;;11.90;;
17796;SDS011;55596;53.554;9.916;2023-08-21T05:52:23;24.20;;;11.53;;
17796;SDS011;55596;53.554;9.916;2023-08-21T05:54:51;18.73;;;10.60;;
17796;SDS011;55596;53.554;9.916;2023-08-21T05:57:18;21.90;;;10.40;;
17796;SDS011;55596;53.554;9.916;2023-08-21T05:59:47;19.23;;;9.63;;
17796;SDS011;55596;53.554;9.916;2023-08-21T06:02:14;21.43;;;9.90;;
17796;SDS011;55596;53.554;9.916;2023-08-21T06:04:41;23.53;;;9.67;;
17796;SDS011;55596;53.554;9.916;2023-08-21T06:07:09;21.90;;;9.70;;
17796;SDS011;55596;53.554;9.916;2023-08-21T06:09:36;21.70;;;9.67;;
17796;SDS011;55596;53.554;9.916;2023-08-21T06:12:03;19.43;;;8.67;;
17796;SDS011;55596;53.554;9.916;2023-08-21T06:14:30;22.57;;;8.83;;
17796;SDS011;55596;53.554;9.916;2023-08-21T06:16:59;17.00;;;8.60;;
17796;SDS011;55596;53.554;9.916;2023-08-21T06:19:26;19.13;;;8.40;;
17796;SDS011;55596;53.554;9.916;2023-08-21T06:21:54;15.17;;;7.03;;
17796;SDS011;55596;53.554;9.916;2023-08-21T06:24:21;25.33;;;7.70;;
17796;SDS011;55596;53.554;9.916;2023-08-21T06:26:48;18.50;;;6.93;;
17796;SDS011;55596;53.554;9.916;2023-08-21T06:29:17;21.50;;;7.33;;
17796;SDS011;55596;53.554;9.916;2023-08-21T06:31:45;19.70;;;6.63;;
17796;SDS011;55596;53.554;9.916;2023-08-21T06:34:13;11.93;;;5.40;;
17796;SDS011;55596;53.554;9.916;2023-08-21T06:36:41;16.83;;;5.60;;
17796;SDS011;55596;53.554;9.916;2023-08-21T06:39:09;15.23;;;5.40;;
17796;SDS011;55596;53.554;9.916;2023-08-21T06:41:36;16.83;;;5.37;;
17796;SDS011;55596;53.554;9.916;2023-08-21T06:44:03;16.97;;;4.87;;
17796;SDS011;55596;53.554;9.916;2023-08-21T06:46:31;15.30;;;5.40;;
17796;SDS011;55596;53.554;9.916;2023-08-21T06:48:58;15.33;;;4.87;;
17796;SDS011;55596;53.554;9.916;2023-08-21T06:51:26;11.53;;;4.17;;
17796;SDS011;55596;53.554;9.916;2023-08-21T06:53:53;12.70;;;3.87;;
17796;SDS011;55596;53.554;9.916;2023-08-21T06:56:21;14.83;;;3.87;;
17796;SDS011;55596;53.554;9.916;2023-08-21T06:58:48;13.23;;;3.47;;
17796;SDS011;55596;53.554;9.916;2023-08-21T07:01:15;16.00;;;4.10;;
17796;SDS011;55596;53.554;9.916;2023-08-21T07:03:42;13.60;;;3.83;;
17796;SDS011;55596;53.554;9.916;2023-08-21T07:06:09;13.43;;;3.47;;
17796;SDS011;55596;53.554;9.916;2023-08-21T07:08:38;11.47;;;3.33;;
17796;SDS011;55596;53.554;9.916;2023-08-21T07:11:06;13.10;;;3.03;;
17796;SDS011;55596;53.554;9.916;2023-08-21T07:13:35;12.20;;;3.10;;
17796;SDS011;55596;53.554;9.916;2023-08-21T07:16:02;12.73;;;3.10;;
17796;SDS011;55596;53.554;9.916;2023-08-21T07:18:31;7.67;;;2.93;;
17796;SDS011;55596;53.554;9.916;2023-08-21T07:20:58;12.87;;;3.47;;
17796;SDS011;55596;53.554;9.916;2023-08-21T07:23:26;13.93;;;3.43;;
17796;SDS011;55596;53.554;9.916;2023-08-21T07:25:54;9.10;;;2.87;;
17796;SDS011;55596;53.554;9.916;2023-08-21T07:28:21;8.93;;;2.37;;
17796;SDS011;55596;53.554;9.916;2023-08-21T07:30:53;14.57;;;2.53;;
17796;SDS011;55596;53.554;9.916;2023-08-21T07:33:21;11.10;;;2.77;;
17796;SDS011;55596;53.554;9.916;2023-08-21T07:35:50;8.05;;;2.17;;
17796;SDS011;55596;53.554;9.916;2023-08-21T07:38:23;9.43;;;2.47;;
17796;SDS011;55596;53.554;9.916;2023-08-21T07:40:50;8.38;;;2.08;;
17796;SDS011;55596;53.554;9.916;2023-08-21T07:43:18;7.88;;;2.03;;
17796;SDS011;55596;53.554;9.916;2023-08-21T07:45:45;12.67;;;2.70;;
17796;SDS011;55596;53.554;9.916;2023-08-21T07:48:13;12.02;;;2.53;;
17796;SDS011;55596;53.554;9.916;2023-08-21T07:50:40;11.33;;;2.70;;
17796;SDS011;55596;53.554;9.916;2023-08-21T07:53:07;8.17;;;2.30;;
17796;SDS011;55596;53.554;9.916;2023-08-21T07:55:35;9.00;;;2.38;;
17796;SDS011;55596;53.554;9.916;2023-08-21T07:58:02;10.95;;;2.50;;
17796;SDS011;55596;53.554;9.916;2023-08-21T08:00:34;8.38;;;1.80;;
17796;SDS011;55596;53.554;9.916;2023-08-21T08:03:01;9.95;;;2.17;;
17796;SDS011;55596;53.554;9.916;2023-08-21T08:05:28;8.65;;;2.30;;
17796;SDS011;55596;53.554;9.916;2023-08-21T08:07:56;10.57;;;2.05;;
17796;SDS011;55596;53.554;9.916;2023-08-21T08:10:23;7.47;;;1.95;;
17796;SDS011;55596;53.554;9.916;2023-08-21T08:12:53;7.57;;;1.98;;
17796;SDS011;55596;53.554;9.916;2023-08-21T08:15:21;9.30;;;2.03;;
17796;SDS011;55596;53.554;9.916;2023-08-21T08:17:50;7.90;;;1.70;;
17796;SDS011;55596;53.554;9.916;2023-08-21T08:20:19;7.35;;;1.63;;
17796;SDS011;55596;53.554;9.916;2023-08-21T08:22:47;5.35;;;1.48;;
17796;SDS011;55596;53.554;9.916;2023-08-21T08:25:15;5.90;;;1.77;;
17796;SDS011;55596;53.554;9.916;2023-08-21T08:27:43;7.30;;;1.58;;
17796;SDS011;55596;53.554;9.916;2023-08-21T08:30:10;8.40;;;1.80;;
17796;SDS011;55596;53.554;9.916;2023-08-21T08:32:38;7.38;;;1.75;;
17796;SDS011;55596;53.554;9.916;2023-08-21T08:35:06;5.07;;;1.63;;
17796;SDS011;55596;53.554;9.916;2023-08-21T08:37:34;6.43;;;1.70;;
17796;SDS011;55596;53.554;9.916;2023-08-21T08:40:01;8.05;;;1.67;;
17796;SDS011;55596;53.554;9.916;2023-08-21T08:42:29;7.13;;;1.73;;
17796;SDS011;55596;53.554;9.916;2023-08-21T08:44:57;7.63;;;1.85;;
17796;SDS011;55596;53.554;9.916;2023-08-21T08:47:28;6.07;;;1.40;;
17796;SDS011;55596;53.554;9.916;2023-08-21T08:50:12;6.65;;;1.65;;
17796;SDS011;55596;53.554;9.916;2023-08-21T08:52:54;6.70;;;1.52;;
17796;SDS011;55596;53.554;9.916;2023-08-21T08:55:35;5.90;;;1.63;;
17796;SDS011;55596;53.554;9.916;2023-08-21T08:58:16;5.00;;;1.02;;
17796;SDS011;55596;53.554;9.916;2023-08-21T09:00:57;7.03;;;2.08;;
17796;SDS011;55596;53.554;9.916;2023-08-21T09:03:32;6.75;;;1.80;;
17796;SDS011;55596;53.554;9.916;2023-08-21T09:06:20;7.07;;;2.10;;
17796;SDS011;55596;53.554;9.916;2023-08-21T09:08:55;9.00;;;1.85;;
17796;SDS011;55596;53.554;9.916;2023-08-21T09:11:41;8.27;;;1.75;;
17796;SDS011;55596;53.554;9.916;2023-08-21T09:14:09;7.95;;;1.40;;
17796;SDS011;55596;53.554;9.916;2023-08-21T09:16:37;7.72;;;1.60;;
17796;SDS011;55596;53.554;9.916;2023-08-21T09:19:04;6.15;;;1.45;;
17796;SDS011;55596;53.554;9.916;2023-08-21T09:21:33;7.15;;;1.42;;
17796;SDS011;55596;53.554;9.916;2023-08-21T09:24:00;6.45;;;1.63;;
17796;SDS011;55596;53.554;9.916;2023-08-21T09:26:30;4.53;;;1.08;;
17796;SDS011;55596;53.554;9.916;2023-08-21T09:28:58;4.65;;;1.20;;
17796;SDS011;55596;53.554;9.916;2023-08-21T09:31:29;8.25;;;1.95;;
17796;SDS011;55596;53.554;9.916;2023-08-21T09:33:57;4.47;;;1.27;;
17796;SDS011;55596;53.554;9.916;2023-08-21T09:36:25;5.97;;;1.25;;
17796;SDS011;55596;53.554;9.916;2023-08-21T09:50:11;8.05;;;1.65;;
17796;SDS011;55596;53.554;9.916;2023-08-21T09:52:41;4.15;;;1.27;;
17796;SDS011;55596;53.554;9.916;2023-08-21T09:55:23;7.55;;;1.50;;
17796;SDS011;55596;53.554;9.916;2023-08-21T09:57:56;3.75;;;1.17;;
17796;SDS011;55596;53.554;9.916;2023-08-21T10:00:29;5.80;;;1.52;;
17796;SDS011;55596;53.554;9.916;2023-08-21T10:02:58;3.13;;;1.10;;
17796;SDS011;55596;53.554;9.916;2023-08-21T10:05:28;4.90;;;1.20;;
17796;SDS011;55596;53.554;9.916;2023-08-21T10:07:56;4.45;;;1.30;;
17796;SDS011;55596;53.554;9.916;2023-08-21T10:10:23;2.70;;;0.90;;
17796;SDS011;55596;53.554;9.916;2023-08-21T10:12:50;4.78;;;1.00;;
17796;SDS011;55596;53.554;9.916;2023-08-21T10:15:18;4.13;;;1.20;;
17796;SDS011;55596;53.554;9.916;2023-08-21T10:18:00;5.38;;;1.27;;
17796;SDS011;55596;53.554;9.916;2023-08-21T10:20:46;9.63;;;1.50;;
17796;SDS011;55596;53.554;9.916;2023-08-21T10:26:01;4.22;;;1.00;;
17796;SDS011;55596;53.554;9.916;2023-08-21T10:28:48;6.05;;;1.17;;
17796;SDS011;55596;53.554;9.916;2023-08-21T10:31:27;2.80;;;0.80;;
17796;SDS011;55596;53.554;9.916;2023-08-21T10:34:11;6.55;;;1.50;;
17796;SDS011;55596;53.554;9.916;2023-08-21T10:37:02;4.50;;;0.98;;
17796;SDS011;55596;53.554;9.916;2023-08-21T10:39:29;6.30;;;1.35;;
17796;SDS011;55596;53.554;9.916;2023-08-21T10:42:00;5.13;;;1.40;;
17796;SDS011;55596;53.554;9.916;2023-08-21T10:44:33;5.03;;;1.75;;
17796;SDS011;55596;53.554;9.916;2023-08-21T10:47:15;3.70;;;1.15;;
17796;SDS011;55596;53.554;9.916;2023-08-21T10:49:44;6.30;;;1.20;;
17796;SDS011;55596;53.554;9.916;2023-08-21T10:52:13;5.75;;;1.15;;
17796;SDS011;55596;53.554;9.916;2023-08-21T10:54:45;5.25;;;1.42;;
17796;SDS011;55596;53.554;9.916;2023-08-21T10:57:14;4.00;;;1.08;;
17796;SDS011;55596;53.554;9.916;2023-08-21T10:59:55;3.10;;;1.05;;
17796;SDS011;55596;53.554;9.916;2023-08-21T11:02:23;4.18;;;1.17;;
17796;SDS011;55596;53.554;9.916;2023-08-21T11:04:51;5.15;;;1.30;;
17796;SDS011;55596;53.554;9.916;2023-08-21T11:07:21;5.70;;;1.40;;
17796;SDS011;55596;53.554;9.916;2023-08-21T11:09:48;6.13;;;1.20;;
17796;SDS011;55596;53.554;9.916;2023-08-21T11:12:17;6.88;;;1.38;;
17796;SDS011;55596;53.554;9.916;2023-08-21T11:14:45;5.15;;;1.30;;
17796;SDS011;55596;53.554;9.916;2023-08-21T11:17:26;5.75;;;1.20;;
17796;SDS011;55596;53.554;9.916;2023-08-21T11:19:55;3.70;;;0.95;;
17796;SDS011;55596;53.554;9.916;2023-08-21T11:22:39;3.90;;;1.00;;
17796;SDS011;55596;53.554;9.916;2023-08-21T11:25:06;7.63;;;1.40;;
17796;SDS011;55596;53.554;9.916;2023-08-21T11:27:33;5.07;;;1.25;;
17796;SDS011;55596;53.554;9.916;2023-08-21T11:30:10;4.45;;;0.98;;
17796;SDS011;55596;53.554;9.916;2023-08-21T11:32:38;5.28;;;1.05;;
17796;SDS011;55596;53.554;9.916;2023-08-21T11:35:06;2.20;;;0.90;;
17796;SDS011;55596;53.554;9.916;2023-08-21T11:37:42;3.70;;;0.90;;
17796;SDS011;55596;53.554;9.916;2023-08-21T11:42:59;3.72;;;1.20;;
17796;SDS011;55596;53.554;9.916;2023-08-21T11:45:30;9.85;;;2.15;;
17796;SDS011;55596;53.554;9.916;2023-08-21T11:47:58;5.53;;;1.58;;
17796;SDS011;55596;53.554;9.916;2023-08-21T11:50:25;6.88;;;1.20;;
17796;SDS011;55596;53.554;9.916;2023-08-21T11:52:53;6.97;;;1.30;;
17796;SDS011;55596;53.554;9.916;2023-08-21T11:55:22;16.50;;;4.20;;
17796;SDS011;55596;53.554;9.916;2023-08-21T11:57:49;4.60;;;1.30;;
17796;SDS011;55596;53.554;9.916;2023-08-21T12:05:57;4.75;;;1.50;;
17796;SDS011;55596;53.554;9.916;2023-08-21T12:08:24;5.18;;;1.30;;
17796;SDS011;55596;53.554;9.916;2023-08-21T12:10:52;4.25;;;1.40;;
17796;SDS011;55596;53.554;9.916;2023-08-21T12:13:21;3.80;;;1.08;;
17796;SDS011;55596;53.554;9.916;2023-08-21T12:15:48;6.28;;;1.40;;
17796;SDS011;55596;53.554;9.916;2023-08-21T12:18:19;3.75;;;1.30;;
17796;SDS011;55596;53.554;9.916;2023-08-21T12:20:54;4.45;;;1.40;;
17796;SDS011;55596;53.554;9.916;2023-08-21T12:23:40;5.75;;;1.65;;
17796;SDS011;55596;53.554;9.916;2023-08-21T12:26:12;6.53;;;1.50;;
17796;SDS011;55596;53.554;9.916;2023-08-21T12:28:43;4.38;;;1.10;;
17796;SDS011;55596;53.554;9.916;2023-08-21T12:31:10;3.85;;;1.40;;
17796;SDS011;55596;53.554;9.916;2023-08-21T12:33:38;7.20;;;1.67;;
17796;SDS011;55596;53.554;9.916;2023-08-21T12:36:05;7.38;;;1.48;;
17796;SDS011;55596;53.554;9.916;2023-08-21T12:38:33;2.90;;;1.27;;
17796;SDS011;55596;53.554;9.916;2023-08-21T12:41:02;6.30;;;1.52;;
17796;SDS011;55596;53.554;9.916;2023-08-21T12:43:30;3.42;;;1.10;;
17796;SDS011;55596;53.554;9.916;2023-08-21T12:45:58;2.70;;;1.20;;
17796;SDS011;55596;53.554;9.916;2023-08-21T12:48:25;3.97;;;1.42;;
17796;SDS011;55596;53.554;9.916;2023-08-21T12:50:52;5.40;;;1.40;;
17796;SDS011;55596;53.554;9.916;2023-08-21T12:53:24;8.02;;;1.42;;
17796;SDS011;55596;53.554;9.916;2023-08-21T12:55:52;3.50;;;1.30;;
17796;SDS011;55596;53.554;9.916;2023-08-21T12:58:20;3.35;;;1.38;;
17796;SDS011;55596;53.554;9.916;2023-08-21T13:00:48;3.72;;;1.25;;
17796;SDS011;55596;53.554;9.916;2023-08-21T13:03:15;4.60;;;1.48;;
17796;SDS011;55596;53.554;9.916;2023-08-21T13:05:42;3.17;;;1.40;;
17796;SDS011;55596;53.554;9.916;2023-08-21T13:08:09;3.22;;;1.25;;
17796;SDS011;55596;53.554;9.916;2023-08-21T13:10:39;3.13;;;1.33;;
17796;SDS011;55596;53.554;9.916;2023-08-21T13:13:21;4.07;;;1.50;;
17796;SDS011;55596;53.554;9.916;2023-08-21T13:15:49;2.63;;;1.17;;
17796;SDS011;55596;53.554;9.916;2023-08-21T13:18:18;2.78;;;1.35;;
17796;SDS011;55596;53.554;9.916;2023-08-21T13:20:46;5.43;;;1.27;;
17796;SDS011;55596;53.554;9.916;2023-08-21T13:23:13;3.30;;;1.40;;
17796;SDS011;55596;53.554;9.916;2023-08-21T13:25:40;4.20;;;1.52;;
17796;SDS011;55596;53.554;9.916;2023-08-21T13:28:07;2.92;;;1.10;;
17796;SDS011;55596;53.554;9.916;2023-08-21T13:30:37;1.85;;;1.15;;
17796;SDS011;55596;53.554;9.916;2023-08-21T13:33:04;3.75;;;1.08;;
17796;SDS011;55596;53.554;9.916;2023-08-21T13:35:32;2.15;;;1.13;;
17796;SDS011;55596;53.554;9.916;2023-08-21T13:38:02;2.22;;;1.10;;
17796;SDS011;55596;53.554;9.916;2023-08-21T13:40:31;3.13;;;1.20;;
17796;SDS011;55596;53.554;9.916;2023-08-21T13:42:58;4.75;;;1.52;;
17796;SDS011;55596;53.554;9.916;2023-08-21T13:45:25;2.00;;;1.10;;
17796;SDS011;55596;53.554;9.916;2023-08-21T13:48:09;3.80;;;1.45;;
17796;SDS011;55596;53.554;9.916;2023-08-21T13:50:36;3.15;;;1.48;;
17796;SDS011;55596;53.554;9.916;2023-08-21T13:53:03;4.50;;;1.10;;
17796;SDS011;55596;53.554;9.916;2023-08-21T13:55:44;4.50;;;1.33;;
17796;SDS011;55596;53.554;9.916;2023-08-21T13:58:12;2.97;;;1.25;;
17796;SDS011;55596;53.554;9.916;2023-08-21T14:00:41;1.98;;;1.25;;
17796;SDS011;55596;53.554;9.916;2023-08-21T14:06:06;2.38;;;1.40;;
17796;SDS011;55596;53.554;9.916;2023-08-21T14:08:36;3.78;;;1.20;;
17796;SDS011;55596;53.554;9.916;2023-08-21T14:11:18;2.45;;;0.98;;
17796;SDS011;55596;53.554;9.916;2023-08-21T14:13:45;2.33;;;1.23;;
17796;SDS011;55596;53.554;9.916;2023-08-21T14:16:12;3.17;;;1.38;;
17796;SDS011;55596;53.554;9.916;2023-08-21T14:18:40;2.65;;;1.33;;
17796;SDS011;55596;53.554;9.916;2023-08-21T14:33:08;4.15;;;1.33;;
17796;SDS011;55596;53.554;9.916;2023-08-21T14:35:36;3.67;;;1.60;;
17796;SDS011;55596;53.554;9.916;2023-08-21T14:38:17;2.53;;;1.20;;
17796;SDS011;55596;53.554;9.916;2023-08-21T14:40:45;3.78;;;1.55;;
17796;SDS011;55596;53.554;9.916;2023-08-21T14:43:14;2.55;;;1.60;;
17796;SDS011;55596;53.554;9.916;2023-08-21T14:45:42;3.05;;;1.70;;
17796;SDS011;55596;53.554;9.916;2023-08-21T14:50:55;4.03;;;1.70;;
17796;SDS011;55596;53.554;9.916;2023-08-21T14:53:27;4.18;;;1.30;;
17796;SDS011;55596;53.554;9.916;2023-08-21T14:55:56;2.25;;;1.40;;
17796;SDS011;55596;53.554;9.916;2023-08-21T14:58:24;2.15;;;1.45;;
17796;SDS011;55596;53.554;9.916;2023-08-21T15:00:53;3.17;;;1.50;;
17796;SDS011;55596;53.554;9.916;2023-08-21T15:03:21;5.13;;;1.60;;
17796;SDS011;55596;53.554;9.916;2023-08-21T15:05:48;2.28;;;1.27;;
17796;SDS011;55596;53.554;9.916;2023-08-21T15:11:17;5.10;;;1.58;;
17796;SDS011;55596;53.554;9.916;2023-08-21T15:13:44;2.72;;;1.80;;
17796;SDS011;55596;53.554;9.916;2023-08-21T15:16:12;2.80;;;1.40;;
17796;SDS011;55596;53.554;9.916;2023-08-21T15:18:44;2.40;;;1.45;;
17796;SDS011;55596;53.554;9.916;2023-08-21T15:21:12;3.40;;;1.60;;
17796;SDS011;55596;53.554;9.916;2023-08-21T15:23:39;4.05;;;1.65;;
17796;SDS011;55596;53.554;9.916;2023-08-21T15:26:06;2.25;;;1.40;;
17796;SDS011;55596;53.554;9.916;2023-08-21T15:28:39;6.75;;;1.73;;
17796;SDS011;55596;53.554;9.916;2023-08-21T15:31:16;4.22;;;1.60;;